Wetterdaten: Woche 01.04.19 - 07.04.19 (KW14)
Datum Zeit Temp. Aussen Temp. o. S. +5cm Feuchte Auss Luftdruck Regen Sonnenschein Regendauer Solar Windben Empfang
01.04.2019 00:00 6,3 C 5,4 C 4,7 C 75 % 1022,7 hPa 0,0 l/m 0,00 h 0,00 h 0 W/m 12,4 km/h (3 Bft) 99,57 %
01.04.2019 01:00 5,3 C 4,2 C 3,7 C 74 % 1022,6 hPa 0,0 l/m 0,00 h 0,00 h 0 W/m 11,1 km/h (2 Bft) 96,73 %
01.04.2019 02:00 4,4 C 3,4 C 3,0 C 76 % 1022,4 hPa 0,0 l/m 0,00 h 0,00 h 0 W/m 11,4 km/h (2 Bft) 95,94 %
01.04.2019 03:00 3,7 C 2,8 C 2,3 C 78 % 1022,1 hPa 0,0 l/m 0,00 h 0,00 h 0 W/m 12,0 km/h (2 Bft) 98,51 %
01.04.2019 04:00 3,1 C 2,3 C 1,9 C 79 % 1021,8 hPa 0,0 l/m 0,00 h 0,00 h 0 W/m 10,5 km/h (2 Bft) 97,71 %
01.04.2019 05:00 2,5 C 1,7 C 1,3 C 81 % 1021,5 hPa 0,0 l/m 0,00 h 0,00 h 0 W/m 9,0 km/h (2 Bft) 97,32 %
01.04.2019 06:00 2,1 C 1,1 C 0,8 C 83 % 1021,3 hPa 0,0 l/m 0,00 h 0,00 h 0 W/m 8,1 km/h (2 Bft) 97,04 %
01.04.2019 07:00 1,8 C 1,2 C 0,8 C 85 % 1021,2 hPa 0,0 l/m 0,00 h 0,00 h 14 W/m 9,6 km/h (2 Bft) 97,29 %
01.04.2019 08:00 2,2 C 2,4 C 1,7 C 85 % 1021,4 hPa 0,0 l/m 0,00 h 0,00 h 34 W/m 9,5 km/h (2 Bft) 97,49 %
01.04.2019 09:00 3,9 C 7,4 C 4,1 C 84 % 1021,2 hPa 0,0 l/m 0,10 h 0,00 h 81 W/m 10,1 km/h (2 Bft) 97,73 %
01.04.2019 10:00 8,1 C 15,5 C 14,1 C 73 % 1021,0 hPa 0,0 l/m 1,00 h 0,00 h 481 W/m 11,4 km/h (2 Bft) 98,61 %
01.04.2019 11:00 11,2 C 19,0 C 13,8 C 65 % 1020,5 hPa 0,0 l/m 1,00 h 0,00 h 626 W/m 10,6 km/h (2 Bft) 99,31 %
01.04.2019 12:00 13,6 C 21,3 C 13,0 C 60 % 1019,7 hPa 0,0 l/m 1,00 h 0,00 h 722 W/m 11,5 km/h (2 Bft) 96,38 %
01.04.2019 13:00 15,3 C 22,9 C 19,0 C 57 % 1018,9 hPa 0,0 l/m 1,00 h 0,00 h 761 W/m 11,6 km/h (2 Bft) 99,53 %
01.04.2019 14:00 16,6 C 23,5 C 23,8 C 54 % 1018,1 hPa 0,0 l/m 1,00 h 0,00 h 743 W/m 11,5 km/h (2 Bft) 97,40 %
01.04.2019 15:00 17,6 C 23,3 C 17,3 C 52 % 1017,2 hPa 0,0 l/m 1,00 h 0,00 h 671 W/m 10,6 km/h (2 Bft) 95,64 %
01.04.2019 16:00 18,0 C 22,5 C 18,3 C 51 % 1016,2 hPa 0,0 l/m 1,00 h 0,00 h 550 W/m 9,7 km/h (2 Bft) 99,51 %
01.04.2019 17:00 17,9 C 19,9 C 17,2 C 50 % 1015,2 hPa 0,0 l/m 1,00 h 0,00 h 389 W/m 9,2 km/h (2 Bft) 97,50 %
01.04.2019 18:00 16,4 C 15,2 C 13,6 C 52 % 1014,6 hPa 0,0 l/m 0,20 h 0,00 h 85 W/m 8,3 km/h (2 Bft) 96,58 %
01.04.2019 19:00 14,6 C 13,0 C 11,9 C 58 % 1014,3 hPa 0,0 l/m 0,00 h 0,00 h 24 W/m 6,3 km/h (2 Bft) 99,31 %
01.04.2019 20:00 12,7 C 10,4 C 9,5 C 63 % 1014,0 hPa 0,0 l/m 0,00 h 0,00 h 6 W/m 5,4 km/h (1 Bft) 96,26 %
01.04.2019 21:00 10,9 C 8,8 C 7,9 C 67 % 1013,8 hPa 0,0 l/m 0,00 h 0,00 h 0 W/m 4,3 km/h (1 Bft) 98,51 %
01.04.2019 22:00 9,6 C 7,7 C 6,6 C 70 % 1013,5 hPa 0,0 l/m 0,00 h 0,00 h 0 W/m 3,0 km/h (1 Bft) 96,93 %
01.04.2019 23:00 8,3 C 6,6 C 5,3 C 72 % 1013,0 hPa 0,0 l/m 0,00 h 0,00 h 0 W/m 1,5 km/h (1 Bft) 96,87 %
02.04.2019 00:00 8,3 C 8,6 C 6,8 C 77 % 1012,5 hPa 0,0 l/m 0,00 h 0,00 h 0 W/m 7,1 km/h (2 Bft) 98,59 %
02.04.2019 01:00 9,2 C 8,5 C 7,5 C 74 % 1012,0 hPa 0,0 l/m 0,00 h 0,00 h 0 W/m 8,3 km/h (2 Bft) 98,01 %
02.04.2019 02:00 8,8 C 7,9 C 7,2 C 74 % 1011,2 hPa 0,0 l/m 0,00 h 0,00 h 0 W/m 9,4 km/h (2 Bft) 95,25 %
02.04.2019 03:00 8,6 C 7,9 C 7,2 C 75 % 1010,5 hPa 0,0 l/m 0,00 h 0,00 h 0 W/m 12,3 km/h (3 Bft) 99,16 %
02.04.2019 04:00 8,3 C 7,6 C 6,8 C 75 % 1009,7 hPa 0,0 l/m 0,00 h 0,00 h 0 W/m 13,1 km/h (3 Bft) 97,79 %
02.04.2019 05:00 8,2 C 7,3 C 6,7 C 76 % 1008,8 hPa 0,0 l/m 0,00 h 0,00 h 0 W/m 12,7 km/h (3 Bft) 96,67 %
02.04.2019 06:00 7,8 C 7,0 C 6,3 C 78 % 1008,1 hPa 0,0 l/m 0,00 h 0,00 h 0 W/m 12,6 km/h (3 Bft) 96,65 %
02.04.2019 07:00 7,9 C 7,6 C 6,8 C 79 % 1007,5 hPa 0,0 l/m 0,00 h 0,00 h 20 W/m 14,1 km/h (3 Bft) 98,50 %
02.04.2019 08:00 8,8 C 8,9 C 8,4 C 78 % 1006,9 hPa 0,0 l/m 0,00 h 0,00 h 87 W/m 18,6 km/h (3 Bft) 97,65 %
02.04.2019 09:00 10,3 C 11,3 C 10,3 C 74 % 1006,1 hPa 0,0 l/m 0,27 h 0,00 h 156 W/m 24,7 km/h (4 Bft) 95,58 %
02.04.2019 10:00 12,2 C 14,4 C 14,4 C 69 % 1005,2 hPa 0,0 l/m 0,97 h 0,00 h 396 W/m 26,6 km/h (4 Bft) 97,79 %
02.04.2019 11:00 13,4 C 14,0 C 13,9 C 68 % 1005,0 hPa 0,0 l/m 0,43 h 0,00 h 303 W/m 25,0 km/h (4 Bft) 99,43 %
02.04.2019 12:00 13,6 C 13,0 C 12,8 C 73 % 1004,6 hPa 0,0 l/m 0,00 h 0,53 h 193 W/m 18,7 km/h (3 Bft) 96,89 %
02.04.2019 13:00 12,8 C 10,1 C 9,7 C 83 % 1004,3 hPa 1,4 l/m 0,00 h 1,00 h 83 W/m 11,1 km/h (2 Bft) 95,33 %
02.04.2019 14:00 11,2 C 9,6 C 9,2 C 91 % 1003,4 hPa 0,8 l/m 0,00 h 0,77 h 67 W/m 9,1 km/h (2 Bft) 99,50 %
02.04.2019 15:00 10,9 C 9,7 C 9,4 C 93 % 1002,4 hPa 0,0 l/m 0,00 h 0,17 h 67 W/m 9,5 km/h (2 Bft) 97,51 %
02.04.2019 16:00 11,1 C 10,6 C 9,8 C 93 % 1001,5 hPa 0,0 l/m 0,00 h 0,00 h 98 W/m 6,3 km/h (2 Bft) 95,61 %
02.04.2019 17:00 12,7 C 13,4 C 11,3 C 88 % 1000,5 hPa 0,0 l/m 0,47 h 0,00 h 221 W/m 13,1 km/h (3 Bft) 98,92 %
02.04.2019 18:00 14,0 C 14,2 C 12,8 C 78 % 1000,2 hPa 0,0 l/m 0,03 h 0,00 h 100 W/m 13,5 km/h (3 Bft) 96,23 %
02.04.2019 19:00 13,8 C 12,7 C 12,0 C 74 % 1000,6 hPa 0,0 l/m 0,00 h 0,00 h 31 W/m 14,4 km/h (3 Bft) 97,15 %
02.04.2019 20:00 11,3 C 9,6 C 9,2 C 80 % 1001,4 hPa 0,8 l/m 0,00 h 0,40 h 5 W/m 20,1 km/h (4 Bft) 98,86 %
02.04.2019 21:00 9,7 C 7,8 C 7,5 C 91 % 1001,2 hPa 0,8 l/m 0,00 h 0,77 h 0 W/m 9,4 km/h (2 Bft) 96,45 %
02.04.2019 22:00 8,8 C 7,5 C 7,2 C 93 % 1000,9 hPa 0,0 l/m 0,00 h 0,00 h 0 W/m 11,6 km/h (2 Bft) 98,27 %
02.04.2019 23:00 8,5 C 7,2 C 7,0 C 95 % 1001,0 hPa 0,0 l/m 0,00 h 0,00 h 0 W/m 7,3 km/h (2 Bft) 96,89 %
03.04.2019 00:00 8,5 C 7,6 C 7,5 C 95 % 1001,1 hPa 0,0 l/m 0,00 h 0,07 h 0 W/m 10,2 km/h (2 Bft) 97,45 %
03.04.2019 01:00 8,5 C 7,0 C 6,8 C 94 % 1001,1 hPa 0,2 l/m 0,00 h 0,97 h 0 W/m 9,8 km/h (2 Bft) 99,45 %
03.04.2019 02:00 7,8 C 6,3 C 6,0 C 94 % 1000,9 hPa 0,2 l/m 0,00 h 0,33 h 0 W/m 4,9 km/h (1 Bft) 95,31 %
03.04.2019 03:00 7,1 C 5,8 C 5,6 C 93 % 1001,0 hPa 0,0 l/m 0,00 h 0,00 h 0 W/m 4,0 km/h (1 Bft) 97,82 %
03.04.2019 04:00 6,7 C 5,6 C 5,1 C 93 % 1000,7 hPa 0,0 l/m 0,00 h 0,00 h 0 W/m 2,3 km/h (1 Bft) 98,79 %
03.04.2019 05:00 6,4 C 5,6 C 5,0 C 93 % 1000,7 hPa 0,0 l/m 0,00 h 0,00 h 0 W/m 1,0 km/h (0 Bft) 97,71 %
03.04.2019 06:00 6,4 C 5,3 C 4,8 C 93 % 1000,5 hPa 0,0 l/m 0,00 h 0,57 h 0 W/m 0,5 km/h (0 Bft) 96,18 %
03.04.2019 07:00 6,3 C 5,0 C 4,7 C 94 % 1000,4 hPa 0,8 l/m 0,00 h 1,00 h 10 W/m 0,1 km/h (0 Bft) 97,35 %
03.04.2019 08:00 6,4 C 5,4 C 5,0 C 95 % 1000,6 hPa 1,0 l/m 0,00 h 1,00 h 31 W/m 1,9 km/h (1 Bft) 98,08 %
03.04.2019 09:00 6,4 C 5,7 C 5,2 C 95 % 1000,6 hPa 0,2 l/m 0,00 h 0,20 h 64 W/m 0,6 km/h (0 Bft) 97,16 %
03.04.2019 10:00 6,4 C 5,6 C 5,3 C 95 % 1000,7 hPa 0,0 l/m 0,00 h 0,00 h 51 W/m 1,6 km/h (1 Bft) 97,52 %
03.04.2019 11:00 6,4 C 5,6 C 5,1 C 94 % 1000,7 hPa 0,0 l/m 0,00 h 0,00 h 46 W/m 0,5 km/h (0 Bft) 98,15 %
03.04.2019 12:00 6,6 C 6,0 C 5,7 C 94 % 1000,2 hPa 0,0 l/m 0,00 h 0,00 h 115 W/m 1,5 km/h (1 Bft) 97,57 %
03.04.2019 13:00 7,5 C 7,6 C 7,4 C 93 % 999,9 hPa 0,0 l/m 0,03 h 0,00 h 233 W/m 3,1 km/h (1 Bft) 97,01 %
03.04.2019 14:00 8,7 C 9,1 C 8,4 C 88 % 999,5 hPa 0,0 l/m 0,00 h 0,00 h 297 W/m 10,7 km/h (2 Bft) 98,43 %
03.04.2019 15:00 9,6 C 10,2 C 8,9 C 80 % 998,7 hPa 0,0 l/m 0,03 h 0,00 h 201 W/m 10,4 km/h (2 Bft) 95,51 %
03.04.2019 16:00 9,8 C 9,9 C 9,7 C 77 % 998,5 hPa 0,0 l/m 0,00 h 0,00 h 138 W/m 10,0 km/h (2 Bft) 97,23 %
03.04.2019 17:00 9,9 C 9,7 C 9,3 C 73 % 998,3 hPa 0,0 l/m 0,00 h 0,00 h 105 W/m 15,0 km/h (3 Bft) 99,07 %
03.04.2019 18:00 9,5 C 8,8 C 8,3 C 75 % 998,1 hPa 0,0 l/m 0,00 h 0,00 h 38 W/m 11,5 km/h (2 Bft) 94,52 %
03.04.2019 19:00 8,9 C 8,1 C 7,7 C 79 % 998,0 hPa 0,0 l/m 0,00 h 0,00 h 11 W/m 10,3 km/h (2 Bft) 96,94 %
03.04.2019 20:00 8,4 C 7,8 C 7,1 C 81 % 998,2 hPa 0,0 l/m 0,00 h 0,00 h 0 W/m 8,5 km/h (2 Bft) 97,93 %
03.04.2019 21:00 7,9 C 7,0 C 6,6 C 81 % 998,7 hPa 0,0 l/m 0,00 h 0,07 h 0 W/m 9,8 km/h (2 Bft) 95,87 %
03.04.2019 22:00 7,2 C 6,3 C 5,8 C 83 % 998,7 hPa 0,0 l/m 0,00 h 0,00 h 0 W/m 7,3 km/h (2 Bft) 97,43 %
03.04.2019 23:00 6,7 C 6,1 C 5,5 C 85 % 998,3 hPa 0,0 l/m 0,00 h 0,00 h 0 W/m 5,1 km/h (1 Bft) 97,15 %
04.04.2019 00:00 6,4 C 5,7 C 5,0 C 87 % 998,4 hPa 0,0 l/m 0,00 h 0,00 h 0 W/m 4,5 km/h (1 Bft) 97,77 %
04.04.2019 01:00 6,1 C 5,3 C 4,6 C 88 % 998,2 hPa 0,0 l/m 0,00 h 0,00 h 0 W/m 1,0 km/h (0 Bft) 99,15 %
04.04.2019 02:00 5,7 C 4,9 C 4,1 C 89 % 997,7 hPa 0,0 l/m 0,00 h 0,00 h 0 W/m 0,5 km/h (0 Bft) 95,23 %
04.04.2019 03:00 5,4 C 4,8 C 4,0 C 90 % 997,6 hPa 0,0 l/m 0,00 h 0,00 h 0 W/m 0,4 km/h (0 Bft) 98,50 %
04.04.2019 04:00 5,1 C 3,8 C 3,1 C 91 % 996,9 hPa 0,0 l/m 0,00 h 0,00 h 0 W/m 0,0 km/h (0 Bft) 97,87 %
04.04.2019 05:00 4,2 C 2,9 C 2,3 C 91 % 996,8 hPa 0,0 l/m 0,00 h 0,00 h 0 W/m 0,0 km/h (0 Bft) 97,26 %
04.04.2019 06:00 3,9 C 3,2 C 2,7 C 92 % 996,7 hPa 0,0 l/m 0,00 h 0,00 h 0 W/m 0,0 km/h (0 Bft) 96,16 %
04.04.2019 07:00 4,0 C 3,5 C 2,9 C 93 % 996,7 hPa 0,0 l/m 0,00 h 0,00 h 11 W/m 0,0 km/h (0 Bft) 99,12 %
04.04.2019 08:00 4,4 C 4,7 C 4,2 C 95 % 997,2 hPa 0,0 l/m 0,00 h 0,00 h 48 W/m 0,0 km/h (0 Bft) 96,92 %
04.04.2019 09:00 5,4 C 6,4 C 5,9 C 96 % 997,4 hPa 0,0 l/m 0,00 h 0,00 h 100 W/m 0,5 km/h (0 Bft) 96,01 %
04.04.2019 10:00 6,5 C 7,8 C 7,5 C 96 % 997,7 hPa 0,0 l/m 0,00 h 0,00 h 170 W/m 2,7 km/h (1 Bft) 98,41 %
04.04.2019 11:00 7,7 C 9,8 C 9,3 C 90 % 997,8 hPa 0,0 l/m 0,10 h 0,00 h 233 W/m 6,5 km/h (2 Bft) 91,96 %
04.04.2019 12:00 8,7 C 10,0 C 9,6 C 81 % 997,9 hPa 0,0 l/m 0,00 h 0,00 h 245 W/m 7,5 km/h (2 Bft) 94,10 %
04.04.2019 13:00 9,3 C 9,7 C 9,5 C 78 % 998,0 hPa 0,0 l/m 0,00 h 0,00 h 181 W/m 8,2 km/h (2 Bft) 95,04 %
04.04.2019 14:00 8,4 C 7,0 C 6,8 C 83 % 998,5 hPa 0,2 l/m 0,00 h 1,00 h 95 W/m 7,8 km/h (2 Bft) 98,32 %
04.04.2019 15:00 7,8 C 6,9 C 6,7 C 86 % 998,9 hPa 0,0 l/m 0,00 h 0,57 h 128 W/m 6,2 km/h (2 Bft) 94,48 %
04.04.2019 16:00 7,9 C 7,6 C 6,9 C 85 % 999,5 hPa 0,0 l/m 0,00 h 0,37 h 103 W/m 6,2 km/h (2 Bft) 98,15 %
04.04.2019 17:00 7,3 C 6,8 C 6,2 C 87 % 999,9 hPa 0,2 l/m 0,00 h 0,50 h 94 W/m 7,8 km/h (2 Bft) 92,11 %
04.04.2019 18:00 7,1 C 7,0 C 6,6 C 86 % 1000,3 hPa 0,0 l/m 0,00 h 0,00 h 77 W/m 5,6 km/h (1 Bft) 81,89 %
04.04.2019 19:00 7,0 C 6,3 C 5,6 C 87 % 1000,9 hPa 0,0 l/m 0,00 h 0,00 h 32 W/m 3,0 km/h (1 Bft) 96,45 %
04.04.2019 20:00 6,4 C 4,7 C 4,1 C 87 % 1001,5 hPa 0,0 l/m 0,00 h 0,00 h 6 W/m 0,7 km/h (0 Bft) 95,90 %
04.04.2019 21:00 5,6 C 4,3 C 3,3 C 88 % 1001,9 hPa 0,0 l/m 0,00 h 0,00 h 0 W/m 0,4 km/h (0 Bft) 97,21 %
04.04.2019 22:00 4,9 C 3,3 C 2,8 C 89 % 1002,2 hPa 0,0 l/m 0,00 h 0,00 h 0 W/m 0,0 km/h (0 Bft) 96,23 %
04.04.2019 23:00 4,4 C 3,3 C 2,8 C 90 % 1002,6 hPa 0,0 l/m 0,00 h 0,00 h 0 W/m 0,0 km/h (0 Bft) 98,00 %
05.04.2019 00:00 4,3 C 3,6 C 2,9 C 92 % 1002,8 hPa 0,0 l/m 0,00 h 0,00 h 0 W/m 0,0 km/h (0 Bft) 96,87 %
05.04.2019 01:00 4,2 C 3,3 C 2,8 C 93 % 1003,0 hPa 0,0 l/m 0,00 h 0,00 h 0 W/m 0,0 km/h (0 Bft) 98,65 %
05.04.2019 02:00 4,1 C 3,3 C 2,8 C 94 % 1003,4 hPa 0,0 l/m 0,00 h 0,00 h 0 W/m 0,3 km/h (0 Bft) 97,01 %
05.04.2019 03:00 4,1 C 3,4 C 2,8 C 94 % 1003,4 hPa 0,0 l/m 0,00 h 0,00 h 0 W/m 0,0 km/h (0 Bft) 95,95 %
05.04.2019 04:00 4,1 C 3,3 C 2,8 C 95 % 1003,6 hPa 0,0 l/m 0,00 h 0,00 h 0 W/m 0,0 km/h (0 Bft) 99,41 %
05.04.2019 05:00 4,0 C 3,3 C 2,8 C 95 % 1003,6 hPa 0,0 l/m 0,00 h 0,00 h 0 W/m 0,1 km/h (0 Bft) 108,42 %
05.04.2019 06:00 3,9 C 3,3 C 2,8 C 96 % 1003,8 hPa 0,0 l/m 0,00 h 0,00 h 0 W/m 0,0 km/h (0 Bft) 97,42 %
05.04.2019 07:00 3,8 C 3,3 C 2,5 C 96 % 1004,3 hPa 0,0 l/m 0,00 h 0,00 h 15 W/m 0,1 km/h (0 Bft) 98,57 %
05.04.2019 08:00 3,7 C 3,7 C 2,6 C 96 % 1004,5 hPa 0,0 l/m 0,00 h 0,00 h 35 W/m 0,0 km/h (0 Bft) 96,79 %
05.04.2019 09:00 4,8 C 9,5 C 6,0 C 97 % 1004,7 hPa 0,0 l/m 0,03 h 0,00 h 82 W/m 1,6 km/h (1 Bft) 97,79 %
05.04.2019 10:00 8,2 C 15,4 C 13,6 C 94 % 1004,8 hPa 0,0 l/m 0,83 h 0,00 h 401 W/m 7,6 km/h (2 Bft) 97,37 %
05.04.2019 11:00 9,6 C 11,0 C 10,3 C 83 % 1004,8 hPa 0,0 l/m 0,13 h 0,00 h 234 W/m 9,5 km/h (2 Bft) 98,15 %
05.04.2019 12:00 9,6 C 10,7 C 10,3 C 81 % 1004,7 hPa 0,0 l/m 0,00 h 0,00 h 235 W/m 10,2 km/h (2 Bft) 95,47 %
05.04.2019 13:00 10,9 C 14,6 C 12,8 C 78 % 1004,6 hPa 0,0 l/m 0,47 h 0,00 h 404 W/m 9,9 km/h (2 Bft) 97,16 %
05.04.2019 14:00 11,5 C 12,9 C 12,5 C 76 % 1004,3 hPa 0,0 l/m 0,20 h 0,00 h 283 W/m 9,9 km/h (2 Bft) 98,01 %
05.04.2019 15:00 10,9 C 10,8 C 10,7 C 76 % 1003,8 hPa 0,0 l/m 0,00 h 0,00 h 152 W/m 9,5 km/h (2 Bft) 96,87 %
05.04.2019 16:00 10,5 C 10,4 C 10,2 C 78 % 1003,3 hPa 0,0 l/m 0,00 h 0,00 h 114 W/m 9,8 km/h (2 Bft) 96,87 %
05.04.2019 17:00 10,1 C 9,5 C 9,3 C 80 % 1003,0 hPa 0,0 l/m 0,00 h 0,00 h 73 W/m 9,9 km/h (2 Bft) 83,74 %
05.04.2019 18:00 9,3 C 8,5 C 8,1 C 83 % 1003,1 hPa 0,0 l/m 0,00 h 0,00 h 28 W/m 8,9 km/h (2 Bft) 89,44 %
05.04.2019 19:00 8,6 C 7,8 C 7,5 C 86 % 1003,3 hPa 0,0 l/m 0,00 h 0,00 h 10 W/m 9,2 km/h (2 Bft) 88,89 %
05.04.2019 20:00 8,1 C 7,2 C 6,9 C 88 % 1003,6 hPa 0,0 l/m 0,00 h 0,00 h 0 W/m 9,7 km/h (2 Bft) 98,72 %
05.04.2019 21:00 7,8 C 7,2 C 6,7 C 90 % 1003,8 hPa 0,0 l/m 0,00 h 0,00 h 0 W/m 6,5 km/h (2 Bft) 97,31 %
05.04.2019 22:00 7,5 C 6,7 C 6,5 C 91 % 1003,7 hPa 0,0 l/m 0,00 h 0,00 h 0 W/m 4,9 km/h (1 Bft) 96,44 %
05.04.2019 23:00 7,4 C 6,7 C 6,1 C 92 % 1003,5 hPa 0,0 l/m 0,00 h 0,00 h 0 W/m 3,1 km/h (1 Bft) 98,43 %
06.04.2019 00:00 7,2 C 6,7 C 6,1 C 93 % 1003,3 hPa 0,0 l/m 0,00 h 0,00 h 0 W/m 1,3 km/h (1 Bft) 97,91 %
06.04.2019 01:00 7,2 C 6,7 C 6,1 C 93 % 1003,1 hPa 0,0 l/m 0,00 h 0,00 h 0 W/m 1,4 km/h (1 Bft) 96,66 %
06.04.2019 02:00 7,1 C 6,7 C 6,1 C 94 % 1003,0 hPa 0,0 l/m 0,00 h 0,00 h 0 W/m 0,4 km/h (0 Bft) 97,44 %
06.04.2019 03:00 7,1 C 6,2 C 6,0 C 94 % 1002,8 hPa 0,0 l/m 0,00 h 0,00 h 0 W/m 0,3 km/h (0 Bft) 97,86 %
06.04.2019 04:00 7,1 C 6,4 C 6,1 C 95 % 1002,6 hPa 0,0 l/m 0,00 h 0,00 h 0 W/m 0,0 km/h (0 Bft) 97,80 %
06.04.2019 05:00 7,1 C 6,7 C 6,1 C 95 % 1002,6 hPa 0,0 l/m 0,00 h 0,00 h 0 W/m 0,1 km/h (0 Bft) 97,14 %
06.04.2019 06:00 7,1 C 6,5 C 5,9 C 95 % 1002,6 hPa 0,0 l/m 0,00 h 0,00 h 0 W/m 0,0 km/h (0 Bft) 97,68 %
06.04.2019 07:00 7,0 C 6,8 C 6,3 C 95 % 1002,9 hPa 0,0 l/m 0,00 h 0,00 h 20 W/m 0,0 km/h (0 Bft) 97,73 %
06.04.2019 08:00 7,6 C 8,4 C 7,9 C 96 % 1003,2 hPa 0,0 l/m 0,00 h 0,00 h 86 W/m 0,7 km/h (0 Bft) 97,26 %
06.04.2019 09:00 9,1 C 10,1 C 9,8 C 92 % 1003,3 hPa 0,0 l/m 0,00 h 0,00 h 165 W/m 11,2 km/h (2 Bft) 96,73 %
06.04.2019 10:00 10,4 C 11,6 C 11,4 C 84 % 1003,3 hPa 0,0 l/m 0,60 h 0,00 h 245 W/m 12,4 km/h (3 Bft) 97,78 %
06.04.2019 11:00 11,7 C 13,6 C 13,2 C 77 % 1003,1 hPa 0,0 l/m 0,60 h 0,00 h 350 W/m 10,2 km/h (2 Bft) 98,22 %
06.04.2019 12:00 13,2 C 15,5 C 14,2 C 72 % 1002,9 hPa 0,0 l/m 0,90 h 0,00 h 481 W/m 16,3 km/h (3 Bft) 97,27 %
06.04.2019 13:00 14,2 C 18,4 C 17,9 C 71 % 1002,7 hPa 0,0 l/m 1,00 h 0,00 h 722 W/m 18,5 km/h (3 Bft) 96,94 %
06.04.2019 14:00 15,9 C 19,7 C 20,4 C 66 % 1002,4 hPa 0,0 l/m 1,00 h 0,00 h 738 W/m 20,6 km/h (4 Bft) 97,22 %
06.04.2019 15:00 16,9 C 18,8 C 17,8 C 66 % 1002,0 hPa 0,0 l/m 0,83 h 0,00 h 380 W/m 12,0 km/h (2 Bft) 99,29 %
06.04.2019 16:00 16,7 C 17,4 C 17,0 C 69 % 1001,9 hPa 0,0 l/m 0,27 h 0,00 h 233 W/m 9,6 km/h (2 Bft) 95,94 %
06.04.2019 17:00 16,6 C 16,4 C 15,9 C 66 % 1001,9 hPa 0,0 l/m 0,10 h 0,00 h 135 W/m 9,4 km/h (2 Bft) 97,08 %
06.04.2019 18:00 16,7 C 16,6 C 15,6 C 65 % 1001,7 hPa 0,0 l/m 0,47 h 0,00 h 156 W/m 10,0 km/h (2 Bft) 99,64 %
06.04.2019 19:00 16,2 C 14,7 C 13,6 C 68 % 1001,7 hPa 0,0 l/m 0,03 h 0,00 h 36 W/m 3,1 km/h (1 Bft) 95,52 %
06.04.2019 20:00 14,2 C 11,3 C 10,1 C 74 % 1002,0 hPa 0,0 l/m 0,00 h 0,00 h 7 W/m 0,0 km/h (0 Bft) 97,15 %
06.04.2019 21:00 12,1 C 10,1 C 8,6 C 79 % 1002,3 hPa 0,0 l/m 0,00 h 0,00 h 0 W/m 0,0 km/h (0 Bft) 98,01 %
06.04.2019 22:00 10,8 C 9,1 C 7,9 C 82 % 1002,2 hPa 0,0 l/m 0,00 h 0,00 h 0 W/m 0,4 km/h (0 Bft) 99,36 %
06.04.2019 23:00 10,3 C 9,4 C 8,2 C 86 % 1002,1 hPa 0,0 l/m 0,00 h 0,00 h 0 W/m 1,4 km/h (1 Bft) 96,28 %
07.04.2019 00:00 10,0 C 8,3 C 7,1 C 87 % 1001,8 hPa 0,0 l/m 0,00 h 0,00 h 0 W/m 0,1 km/h (0 Bft) 97,57 %
07.04.2019 01:00 9,1 C 7,8 C 6,6 C 88 % 1001,6 hPa 0,0 l/m 0,00 h 0,00 h 0 W/m 0,0 km/h (0 Bft) 97,36 %
07.04.2019 02:00 8,9 C 8,5 C 7,5 C 91 % 1001,5 hPa 0,0 l/m 0,00 h 0,00 h 0 W/m 0,0 km/h (0 Bft) 98,02 %
07.04.2019 03:00 9,4 C 9,5 C 8,3 C 94 % 1001,3 hPa 0,0 l/m 0,00 h 0,00 h 0 W/m 0,4 km/h (0 Bft) 96,87 %
07.04.2019 04:00 10,2 C 10,0 C 8,6 C 95 % 1001,2 hPa 0,0 l/m 0,00 h 0,00 h 0 W/m 0,2 km/h (0 Bft) 97,15 %
07.04.2019 05:00 9,8 C 8,5 C 7,1 C 94 % 1001,3 hPa 0,0 l/m 0,00 h 0,00 h 0 W/m 0,1 km/h (0 Bft) 97,73 %
07.04.2019 06:00 9,3 C 8,1 C 6,5 C 93 % 1001,5 hPa 0,0 l/m 0,00 h 0,00 h 6 W/m 0,0 km/h (0 Bft) 98,89 %
07.04.2019 07:00 8,5 C 7,4 C 6,2 C 93 % 1001,9 hPa 0,0 l/m 0,00 h 0,00 h 27 W/m 0,0 km/h (0 Bft) 95,18 %
07.04.2019 08:00 8,5 C 9,8 C 8,1 C 94 % 1002,3 hPa 0,0 l/m 0,00 h 0,00 h 67 W/m 0,2 km/h (0 Bft) 97,93 %
07.04.2019 09:00 10,7 C 16,7 C 12,3 C 96 % 1002,6 hPa 0,0 l/m 0,00 h 0,00 h 96 W/m 3,6 km/h (1 Bft) 98,72 %
07.04.2019 10:00 15,4 C 23,7 C 21,1 C 83 % 1002,8 hPa 0,0 l/m 1,00 h 0,00 h 466 W/m 6,3 km/h (2 Bft) 97,79 %
07.04.2019 11:00 18,7 C 25,9 C 21,2 C 66 % 1002,8 hPa 0,0 l/m 1,00 h 0,00 h 612 W/m 8,8 km/h (2 Bft) 98,93 %
07.04.2019 12:00 20,4 C 27,4 C 19,8 C 59 % 1002,8 hPa 0,0 l/m 1,00 h 0,00 h 723 W/m 9,8 km/h (2 Bft) 96,34 %
07.04.2019 13:00 21,1 C 23,7 C 22,0 C 53 % 1002,5 hPa 0,0 l/m 0,60 h 0,00 h 515 W/m 12,2 km/h (3 Bft) 96,49 %
07.04.2019 14:00 19,9 C 21,1 C 20,1 C 54 % 1002,5 hPa 0,0 l/m 0,20 h 0,00 h 308 W/m 10,6 km/h (2 Bft) 97,92 %
07.04.2019 15:00 21,7 C 24,9 C 22,0 C 52 % 1002,4 hPa 0,0 l/m 0,53 h 0,00 h 515 W/m 13,1 km/h (3 Bft) 98,61 %
07.04.2019 16:00 20,2 C 19,6 C 18,7 C 55 % 1002,4 hPa 0,0 l/m 0,00 h 0,00 h 141 W/m 10,2 km/h (2 Bft) 95,94 %
07.04.2019 17:00 20,4 C 21,3 C 20,3 C 55 % 1002,3 hPa 0,0 l/m 0,47 h 0,00 h 284 W/m 14,3 km/h (3 Bft) 97,51 %
07.04.2019 18:00 19,1 C 18,3 C 17,0 C 58 % 1002,6 hPa 0,0 l/m 0,00 h 0,00 h 90 W/m 10,6 km/h (2 Bft) 99,50 %
07.04.2019 19:00 18,4 C 17,3 C 16,1 C 61 % 1002,9 hPa 0,0 l/m 0,17 h 0,00 h 46 W/m 7,2 km/h (2 Bft) 94,88 %
07.04.2019 20:00 16,9 C 14,9 C 13,6 C 64 % 1003,7 hPa 0,0 l/m 0,00 h 0,00 h 6 W/m 5,9 km/h (2 Bft) 97,93 %
07.04.2019 21:00 15,4 C 13,2 C 12,1 C 68 % 1004,4 hPa 0,0 l/m 0,00 h 0,00 h 0 W/m 1,2 km/h (1 Bft) 98,51 %
07.04.2019 22:00 14,3 C 13,1 C 11,7 C 72 % 1004,6 hPa 0,0 l/m 0,00 h 0,00 h 0 W/m 2,5 km/h (1 Bft) 98,01 %
07.04.2019 23:00 13,7 C 11,7 C 10,4 C 73 % 1004,7 hPa 0,0 l/m 0,00 h 0,00 h 0 W/m 1,3 km/h (1 Bft) 96,11 %
Min-Datum _ 01.04.19 01.04.19 01.04.19 01.04.19 04.04.19 - - - - 01.04.19 05.04.19
_ Min-Zeit 07:04 06:00 06:24 17:16 06:42 - - - - 21:58 17:02
Minimum _ 1,8 C 1,1 C 0,6 C 48 % 996,5 hPa - - - - 0,0 km/h (0 Bft) 44,44 %
Max-Datum _ 07.04.19 07.04.19 07.04.19 05.04.19 01.04.19 02.04.19 01.04.19 02.04.19 05.04.19 02.04.19 05.04.19
_ Max-Zeit 15:32 12:44 13:34 09:24 00:07 13:06 12:07 12:10 13:20 10:40 05:19
Maximum _ 22,4 C 31,7 C 27,2 C 97 % 1022,8 hPa 1,4 l/m 0,05 h 0,03 h 964 W/m 41,8 km/h
SO (6 Bft)
455,36 %
Durchschnitt _ 9,5 C 9,7 C 8,7 C 82 % 1004,5 hPa #6,6 l/m #23:04 h #10:16 h 202 W/m 6,8 km/h (2 Bft) 97,14 %
© 2019 W. Hausmann